Airfield :
LOGIN :

Register | Disclaimer

   EN    FR    IT 

 










Legend :    VFR   Marginal VFR   IFR   Intensive IFR   Very Intensive IFR
Visi :
Ceiling :
>= 8 km
>= 3000ft
5 to 8 km
1000 to 3000 ft
1500m to 5 km
500 to 1000 ft
800 to 1500m
200 to 500 ft
< 800m
< 200 ft
Symbols :   Thunderstorms  Fog  Heavy snow  Heavy precipitations  Wind > 20 kt
SIGMETs :     Misc.  Thunderstorms  Icing  Turbulence  Mountain Waves  Volcanic Ashes






- Airport Elevation : 56 ft
- IATA code : ILY


EGPI - Islay

CURRENT METAR :
  • 171750Z 30021G31KT 9999 -SHRA SCT031 06/02 Q1010

EXPIRED METARs :
  • 171720Z 30019KT 9999 FEW026 SCT036 06/02 Q1010
  • 171650Z 31018KT 280V340 9999 -SHRA SCT026 06/03 Q1009
  • 171620Z AUTO 30020KT 9999 NCD 07/03 Q1009
  • 171550Z 29020KT 9999 FEW024 07/03 Q1008
  • 171520Z 29018KT 9999 FEW024 07/02 Q1007
  • 171450Z 29018KT 9999 FEW020 07/03 Q1007

TAF AMD TAF EGPI
Valid from the 17 at 16:00 until the 17 at 19:00 UTC


171604Z 1716/1719 27012KT 9999 FEW025
TEMPO 1716/1719 28018G28KT
PROB40
TEMPO 1716/1719 6000 SHRA BKN014



MET'MAP, your aeronautical weather chart ! - Copyright ORBIFLY December 2007 - Disclaimer

ORBIFLY MET'MAP TEAM :

Programming & Development : Alexandra Zaïnal
Concept & original design : Baudouin d'Aumeries
Assistance for programming : Marc-Olivier Méhu
Technical & hardware support : Manuel Goepfert

Contact : metmap@orbifly.com




SOURCES & CREDITS :

   NOAA